sensor_id;sensor_type;location;lat;lon;timestamp;P1;durP1;ratioP1;P2;durP2;ratioP2
8407;SDS011;4241;48.452;9.216;2023-03-23T00:00:13;457.90;;;162.73;;
8407;SDS011;4241;48.452;9.216;2023-03-23T00:02:41;458.07;;;163.17;;
8407;SDS011;4241;48.452;9.216;2023-03-23T00:05:08;458.50;;;163.97;;
8407;SDS011;4241;48.452;9.216;2023-03-23T00:07:36;457.87;;;163.63;;
8407;SDS011;4241;48.452;9.216;2023-03-23T00:10:04;455.70;;;159.50;;
8407;SDS011;4241;48.452;9.216;2023-03-23T00:12:32;458.27;;;161.97;;
8407;SDS011;4241;48.452;9.216;2023-03-23T00:14:59;454.13;;;157.47;;
8407;SDS011;4241;48.452;9.216;2023-03-23T00:17:26;456.30;;;161.70;;
8407;SDS011;4241;48.452;9.216;2023-03-23T00:19:53;453.83;;;158.30;;
8407;SDS011;4241;48.452;9.216;2023-03-23T00:22:21;454.90;;;158.70;;
8407;SDS011;4241;48.452;9.216;2023-03-23T00:24:50;454.47;;;157.10;;
8407;SDS011;4241;48.452;9.216;2023-03-23T00:27:18;454.30;;;157.43;;
8407;SDS011;4241;48.452;9.216;2023-03-23T00:29:47;454.57;;;158.53;;
8407;SDS011;4241;48.452;9.216;2023-03-23T00:32:18;456.00;;;159.57;;
8407;SDS011;4241;48.452;9.216;2023-03-23T00:34:46;455.23;;;158.90;;
8407;SDS011;4241;48.452;9.216;2023-03-23T00:37:13;455.70;;;161.13;;
8407;SDS011;4241;48.452;9.216;2023-03-23T00:39:42;457.97;;;161.30;;
8407;SDS011;4241;48.452;9.216;2023-03-23T00:42:10;454.73;;;158.67;;
8407;SDS011;4241;48.452;9.216;2023-03-23T00:44:40;454.57;;;157.33;;
8407;SDS011;4241;48.452;9.216;2023-03-23T00:47:08;456.10;;;160.73;;
8407;SDS011;4241;48.452;9.216;2023-03-23T00:49:36;456.10;;;159.43;;
8407;SDS011;4241;48.452;9.216;2023-03-23T00:52:03;455.27;;;159.03;;
8407;SDS011;4241;48.452;9.216;2023-03-23T00:54:32;455.90;;;159.70;;
8407;SDS011;4241;48.452;9.216;2023-03-23T00:56:59;455.77;;;159.67;;
8407;SDS011;4241;48.452;9.216;2023-03-23T00:59:26;455.73;;;160.20;;
8407;SDS011;4241;48.452;9.216;2023-03-23T01:01:56;455.20;;;159.87;;
8407;SDS011;4241;48.452;9.216;2023-03-23T01:04:22;461.13;;;164.67;;
8407;SDS011;4241;48.452;9.216;2023-03-23T01:06:50;456.03;;;160.63;;
8407;SDS011;4241;48.452;9.216;2023-03-23T01:09:18;454.30;;;157.87;;
8407;SDS011;4241;48.452;9.216;2023-03-23T01:11:46;453.60;;;157.80;;
8407;SDS011;4241;48.452;9.216;2023-03-23T01:14:15;453.63;;;156.43;;
8407;SDS011;4241;48.452;9.216;2023-03-23T01:16:43;455.57;;;162.17;;
8407;SDS011;4241;48.452;9.216;2023-03-23T01:19:11;454.07;;;157.93;;
8407;SDS011;4241;48.452;9.216;2023-03-23T01:21:40;455.03;;;158.80;;
8407;SDS011;4241;48.452;9.216;2023-03-23T01:24:07;454.70;;;159.13;;
8407;SDS011;4241;48.452;9.216;2023-03-23T01:26:34;455.37;;;158.90;;
8407;SDS011;4241;48.452;9.216;2023-03-23T01:29:01;453.80;;;157.47;;
8407;SDS011;4241;48.452;9.216;2023-03-23T01:31:28;454.00;;;157.20;;
8407;SDS011;4241;48.452;9.216;2023-03-23T01:33:54;454.70;;;158.07;;
8407;SDS011;4241;48.452;9.216;2023-03-23T01:36:23;455.13;;;158.80;;
8407;SDS011;4241;48.452;9.216;2023-03-23T01:38:53;452.70;;;156.03;;
8407;SDS011;4241;48.452;9.216;2023-03-23T01:41:23;456.60;;;159.97;;
8407;SDS011;4241;48.452;9.216;2023-03-23T01:43:53;455.47;;;160.33;;
8407;SDS011;4241;48.452;9.216;2023-03-23T01:46:21;456.53;;;161.20;;
8407;SDS011;4241;48.452;9.216;2023-03-23T01:48:48;455.37;;;160.33;;
8407;SDS011;4241;48.452;9.216;2023-03-23T01:51:16;456.13;;;160.33;;
8407;SDS011;4241;48.452;9.216;2023-03-23T01:53:46;453.53;;;157.17;;
8407;SDS011;4241;48.452;9.216;2023-03-23T01:56:18;456.87;;;161.33;;
8407;SDS011;4241;48.452;9.216;2023-03-23T01:58:49;453.27;;;155.37;;
8407;SDS011;4241;48.452;9.216;2023-03-23T02:01:17;455.83;;;158.80;;
8407;SDS011;4241;48.452;9.216;2023-03-23T02:03:46;454.47;;;158.73;;
8407;SDS011;4241;48.452;9.216;2023-03-23T02:06:14;455.93;;;159.23;;
8407;SDS011;4241;48.452;9.216;2023-03-23T02:08:41;454.90;;;158.60;;
8407;SDS011;4241;48.452;9.216;2023-03-23T02:11:14;452.67;;;155.23;;
8407;SDS011;4241;48.452;9.216;2023-03-23T02:13:42;454.67;;;157.70;;
8407;SDS011;4241;48.452;9.216;2023-03-23T02:16:11;453.93;;;157.90;;
8407;SDS011;4241;48.452;9.216;2023-03-23T02:18:47;456.50;;;160.40;;
8407;SDS011;4241;48.452;9.216;2023-03-23T02:24:29;454.27;;;157.53;;
8407;SDS011;4241;48.452;9.216;2023-03-23T02:27:07;455.03;;;158.70;;
8407;SDS011;4241;48.452;9.216;2023-03-23T02:29:48;456.40;;;160.23;;
8407;SDS011;4241;48.452;9.216;2023-03-23T02:35:37;460.23;;;163.77;;
8407;SDS011;4241;48.452;9.216;2023-03-23T02:38:08;455.07;;;157.07;;
8407;SDS011;4241;48.452;9.216;2023-03-23T02:40:40;455.30;;;158.03;;
8407;SDS011;4241;48.452;9.216;2023-03-23T02:43:09;453.80;;;156.53;;
8407;SDS011;4241;48.452;9.216;2023-03-23T02:45:39;460.47;;;162.63;;
8407;SDS011;4241;48.452;9.216;2023-03-23T02:48:08;457.33;;;161.93;;
8407;SDS011;4241;48.452;9.216;2023-03-23T02:50:38;456.23;;;160.23;;
8407;SDS011;4241;48.452;9.216;2023-03-23T02:53:07;459.77;;;162.63;;
8407;SDS011;4241;48.452;9.216;2023-03-23T02:55:36;459.87;;;166.20;;
8407;SDS011;4241;48.452;9.216;2023-03-23T02:58:05;457.73;;;161.00;;
8407;SDS011;4241;48.452;9.216;2023-03-23T03:00:32;458.57;;;163.80;;
8407;SDS011;4241;48.452;9.216;2023-03-23T03:02:59;456.03;;;160.77;;
8407;SDS011;4241;48.452;9.216;2023-03-23T03:05:30;460.40;;;165.27;;
8407;SDS011;4241;48.452;9.216;2023-03-23T03:08:11;458.43;;;163.67;;
8407;SDS011;4241;48.452;9.216;2023-03-23T03:10:49;457.53;;;162.77;;
8407;SDS011;4241;48.452;9.216;2023-03-23T03:13:22;458.80;;;166.20;;
8407;SDS011;4241;48.452;9.216;2023-03-23T03:15:56;456.43;;;161.03;;
8407;SDS011;4241;48.452;9.216;2023-03-23T03:18:27;456.33;;;161.37;;
8407;SDS011;4241;48.452;9.216;2023-03-23T03:20:58;458.37;;;165.87;;
8407;SDS011;4241;48.452;9.216;2023-03-23T03:23:30;458.27;;;165.17;;
8407;SDS011;4241;48.452;9.216;2023-03-23T03:25:58;458.97;;;165.93;;
8407;SDS011;4241;48.452;9.216;2023-03-23T03:28:29;458.67;;;164.80;;
8407;SDS011;4241;48.452;9.216;2023-03-23T03:30:58;457.60;;;163.13;;
8407;SDS011;4241;48.452;9.216;2023-03-23T03:33:29;458.73;;;165.47;;
8407;SDS011;4241;48.452;9.216;2023-03-23T03:35:58;458.03;;;164.10;;
8407;SDS011;4241;48.452;9.216;2023-03-23T03:38:29;459.73;;;165.97;;
8407;SDS011;4241;48.452;9.216;2023-03-23T03:41:06;459.80;;;165.73;;
8407;SDS011;4241;48.452;9.216;2023-03-23T03:43:33;457.90;;;163.43;;
8407;SDS011;4241;48.452;9.216;2023-03-23T03:46:00;458.57;;;164.37;;
8407;SDS011;4241;48.452;9.216;2023-03-23T03:48:26;459.10;;;166.33;;
8407;SDS011;4241;48.452;9.216;2023-03-23T03:50:53;458.93;;;165.13;;
8407;SDS011;4241;48.452;9.216;2023-03-23T03:53:21;458.50;;;165.00;;
8407;SDS011;4241;48.452;9.216;2023-03-23T03:55:49;459.47;;;166.63;;
8407;SDS011;4241;48.452;9.216;2023-03-23T03:58:20;459.97;;;166.03;;
8407;SDS011;4241;48.452;9.216;2023-03-23T04:00:47;459.17;;;166.13;;
8407;SDS011;4241;48.452;9.216;2023-03-23T04:03:14;458.17;;;164.43;;
8407;SDS011;4241;48.452;9.216;2023-03-23T04:05:41;461.57;;;165.90;;
8407;SDS011;4241;48.452;9.216;2023-03-23T04:08:09;458.47;;;164.83;;
8407;SDS011;4241;48.452;9.216;2023-03-23T04:10:36;460.03;;;167.50;;
8407;SDS011;4241;48.452;9.216;2023-03-23T04:13:05;457.90;;;164.20;;
8407;SDS011;4241;48.452;9.216;2023-03-23T04:15:32;464.37;;;170.17;;
8407;SDS011;4241;48.452;9.216;2023-03-23T04:17:59;457.47;;;162.10;;
8407;SDS011;4241;48.452;9.216;2023-03-23T04:20:26;457.50;;;162.33;;
8407;SDS011;4241;48.452;9.216;2023-03-23T04:22:55;458.23;;;162.13;;
8407;SDS011;4241;48.452;9.216;2023-03-23T04:25:22;463.77;;;168.50;;
8407;SDS011;4241;48.452;9.216;2023-03-23T04:27:49;456.10;;;160.47;;
8407;SDS011;4241;48.452;9.216;2023-03-23T04:30:20;455.40;;;158.83;;
8407;SDS011;4241;48.452;9.216;2023-03-23T04:32:48;454.53;;;158.37;;
8407;SDS011;4241;48.452;9.216;2023-03-23T04:35:17;456.50;;;159.93;;
8407;SDS011;4241;48.452;9.216;2023-03-23T04:37:45;454.10;;;157.57;;
8407;SDS011;4241;48.452;9.216;2023-03-23T04:40:13;453.70;;;157.00;;
8407;SDS011;4241;48.452;9.216;2023-03-23T04:42:42;457.20;;;159.87;;
8407;SDS011;4241;48.452;9.216;2023-03-23T04:45:11;457.50;;;161.67;;
8407;SDS011;4241;48.452;9.216;2023-03-23T04:47:41;457.27;;;162.07;;
8407;SDS011;4241;48.452;9.216;2023-03-23T04:50:21;457.60;;;163.70;;
8407;SDS011;4241;48.452;9.216;2023-03-23T04:52:49;458.20;;;162.97;;
8407;SDS011;4241;48.452;9.216;2023-03-23T04:55:16;457.60;;;163.03;;
8407;SDS011;4241;48.452;9.216;2023-03-23T04:57:45;459.00;;;164.70;;
8407;SDS011;4241;48.452;9.216;2023-03-23T05:00:12;458.73;;;165.57;;
8407;SDS011;4241;48.452;9.216;2023-03-23T05:02:43;458.73;;;166.17;;
8407;SDS011;4241;48.452;9.216;2023-03-23T05:05:11;460.50;;;168.03;;
8407;SDS011;4241;48.452;9.216;2023-03-23T05:07:39;456.07;;;162.07;;
8407;SDS011;4241;48.452;9.216;2023-03-23T05:10:10;456.63;;;162.13;;
8407;SDS011;4241;48.452;9.216;2023-03-23T05:12:37;458.30;;;164.43;;
8407;SDS011;4241;48.452;9.216;2023-03-23T05:15:05;457.57;;;163.77;;
8407;SDS011;4241;48.452;9.216;2023-03-23T05:17:33;456.63;;;163.57;;
8407;SDS011;4241;48.452;9.216;2023-03-23T05:20:02;456.00;;;162.17;;
8407;SDS011;4241;48.452;9.216;2023-03-23T05:22:30;456.93;;;162.13;;
8407;SDS011;4241;48.452;9.216;2023-03-23T05:24:57;457.07;;;162.27;;
8407;SDS011;4241;48.452;9.216;2023-03-23T05:27:24;455.80;;;161.00;;
8407;SDS011;4241;48.452;9.216;2023-03-23T05:29:53;458.53;;;165.30;;
8407;SDS011;4241;48.452;9.216;2023-03-23T05:32:20;456.63;;;161.70;;
8407;SDS011;4241;48.452;9.216;2023-03-23T05:34:54;458.13;;;164.57;;
8407;SDS011;4241;48.452;9.216;2023-03-23T05:37:23;458.00;;;164.73;;
8407;SDS011;4241;48.452;9.216;2023-03-23T05:39:51;458.97;;;164.93;;
8407;SDS011;4241;48.452;9.216;2023-03-23T05:42:20;456.07;;;162.33;;
8407;SDS011;4241;48.452;9.216;2023-03-23T05:44:47;458.37;;;162.27;;
8407;SDS011;4241;48.452;9.216;2023-03-23T05:47:14;459.20;;;164.63;;
8407;SDS011;4241;48.452;9.216;2023-03-23T05:49:41;457.90;;;164.43;;
8407;SDS011;4241;48.452;9.216;2023-03-23T05:52:08;460.00;;;168.17;;
8407;SDS011;4241;48.452;9.216;2023-03-23T05:54:37;457.30;;;162.87;;
8407;SDS011;4241;48.452;9.216;2023-03-23T05:57:03;455.90;;;162.70;;
8407;SDS011;4241;48.452;9.216;2023-03-23T05:59:30;459.70;;;166.33;;
8407;SDS011;4241;48.452;9.216;2023-03-23T06:01:58;458.77;;;165.07;;
8407;SDS011;4241;48.452;9.216;2023-03-23T06:04:25;483.90;;;185.70;;
8407;SDS011;4241;48.452;9.216;2023-03-23T06:06:52;462.30;;;170.13;;
8407;SDS011;4241;48.452;9.216;2023-03-23T06:09:19;467.27;;;174.80;;
8407;SDS011;4241;48.452;9.216;2023-03-23T06:11:49;460.70;;;167.20;;
8407;SDS011;4241;48.452;9.216;2023-03-23T06:14:16;459.00;;;167.20;;
8407;SDS011;4241;48.452;9.216;2023-03-23T06:16:43;461.40;;;169.20;;
8407;SDS011;4241;48.452;9.216;2023-03-23T06:19:10;460.07;;;168.67;;
8407;SDS011;4241;48.452;9.216;2023-03-23T06:21:37;459.03;;;166.47;;
8407;SDS011;4241;48.452;9.216;2023-03-23T06:24:05;459.57;;;168.13;;
8407;SDS011;4241;48.452;9.216;2023-03-23T06:26:33;461.27;;;170.23;;
8407;SDS011;4241;48.452;9.216;2023-03-23T06:29:04;461.20;;;170.17;;
8407;SDS011;4241;48.452;9.216;2023-03-23T06:31:36;456.20;;;163.13;;
8407;SDS011;4241;48.452;9.216;2023-03-23T06:34:04;459.43;;;167.67;;
8407;SDS011;4241;48.452;9.216;2023-03-23T06:36:34;460.27;;;167.83;;
8407;SDS011;4241;48.452;9.216;2023-03-23T06:39:01;459.63;;;167.70;;
8407;SDS011;4241;48.452;9.216;2023-03-23T06:41:29;459.83;;;168.33;;
8407;SDS011;4241;48.452;9.216;2023-03-23T06:43:56;460.43;;;169.00;;
8407;SDS011;4241;48.452;9.216;2023-03-23T06:46:24;461.23;;;170.87;;
8407;SDS011;4241;48.452;9.216;2023-03-23T06:48:51;461.97;;;170.67;;
8407;SDS011;4241;48.452;9.216;2023-03-23T06:51:17;460.93;;;169.93;;
8407;SDS011;4241;48.452;9.216;2023-03-23T06:53:44;459.70;;;169.20;;
8407;SDS011;4241;48.452;9.216;2023-03-23T06:56:11;460.87;;;168.77;;
8407;SDS011;4241;48.452;9.216;2023-03-23T06:58:38;461.27;;;170.43;;
8407;SDS011;4241;48.452;9.216;2023-03-23T07:01:06;461.73;;;171.73;;
8407;SDS011;4241;48.452;9.216;2023-03-23T07:03:35;461.40;;;172.27;;
8407;SDS011;4241;48.452;9.216;2023-03-23T07:06:03;461.73;;;171.77;;
8407;SDS011;4241;48.452;9.216;2023-03-23T07:08:30;463.17;;;174.03;;
8407;SDS011;4241;48.452;9.216;2023-03-23T07:10:56;463.23;;;173.17;;
8407;SDS011;4241;48.452;9.216;2023-03-23T07:13:23;463.27;;;173.50;;
8407;SDS011;4241;48.452;9.216;2023-03-23T07:15:51;462.50;;;173.90;;
8407;SDS011;4241;48.452;9.216;2023-03-23T07:18:18;462.33;;;172.83;;
8407;SDS011;4241;48.452;9.216;2023-03-23T07:20:48;462.77;;;173.80;;
8407;SDS011;4241;48.452;9.216;2023-03-23T07:23:15;464.27;;;176.23;;
8407;SDS011;4241;48.452;9.216;2023-03-23T07:25:42;465.03;;;177.47;;
8407;SDS011;4241;48.452;9.216;2023-03-23T07:28:10;465.00;;;175.10;;
8407;SDS011;4241;48.452;9.216;2023-03-23T07:30:37;464.37;;;175.20;;
8407;SDS011;4241;48.452;9.216;2023-03-23T07:33:04;462.00;;;174.47;;
8407;SDS011;4241;48.452;9.216;2023-03-23T07:35:32;472.33;;;184.73;;
8407;SDS011;4241;48.452;9.216;2023-03-23T07:38:00;468.23;;;179.47;;
8407;SDS011;4241;48.452;9.216;2023-03-23T07:40:28;466.43;;;178.47;;
8407;SDS011;4241;48.452;9.216;2023-03-23T07:42:58;463.47;;;176.53;;
8407;SDS011;4241;48.452;9.216;2023-03-23T07:45:25;472.37;;;186.07;;
8407;SDS011;4241;48.452;9.216;2023-03-23T07:47:53;465.90;;;178.93;;
8407;SDS011;4241;48.452;9.216;2023-03-23T07:50:21;464.63;;;176.87;;
8407;SDS011;4241;48.452;9.216;2023-03-23T07:52:49;462.37;;;172.20;;
8407;SDS011;4241;48.452;9.216;2023-03-23T07:55:19;464.57;;;176.23;;
8407;SDS011;4241;48.452;9.216;2023-03-23T07:57:46;462.73;;;174.63;;
8407;SDS011;4241;48.452;9.216;2023-03-23T08:00:14;461.50;;;171.43;;
8407;SDS011;4241;48.452;9.216;2023-03-23T08:02:44;462.03;;;171.47;;
8407;SDS011;4241;48.452;9.216;2023-03-23T08:05:11;462.60;;;173.73;;
8407;SDS011;4241;48.452;9.216;2023-03-23T08:07:39;462.40;;;173.23;;
8407;SDS011;4241;48.452;9.216;2023-03-23T08:10:07;462.90;;;174.43;;
8407;SDS011;4241;48.452;9.216;2023-03-23T08:12:38;464.80;;;176.07;;
8407;SDS011;4241;48.452;9.216;2023-03-23T08:15:06;462.07;;;173.67;;
8407;SDS011;4241;48.452;9.216;2023-03-23T08:17:33;463.67;;;174.73;;
8407;SDS011;4241;48.452;9.216;2023-03-23T08:20:01;465.50;;;178.33;;
8407;SDS011;4241;48.452;9.216;2023-03-23T08:22:36;463.47;;;175.47;;
8407;SDS011;4241;48.452;9.216;2023-03-23T08:25:03;465.97;;;180.03;;
8407;SDS011;4241;48.452;9.216;2023-03-23T08:27:32;465.53;;;179.37;;
8407;SDS011;4241;48.452;9.216;2023-03-23T08:30:00;470.17;;;182.17;;
8407;SDS011;4241;48.452;9.216;2023-03-23T08:32:27;465.33;;;179.83;;
8407;SDS011;4241;48.452;9.216;2023-03-23T08:34:54;464.27;;;177.17;;
8407;SDS011;4241;48.452;9.216;2023-03-23T08:37:21;463.87;;;177.03;;
8407;SDS011;4241;48.452;9.216;2023-03-23T08:39:50;462.47;;;173.63;;
8407;SDS011;4241;48.452;9.216;2023-03-23T08:42:17;461.60;;;172.50;;
8407;SDS011;4241;48.452;9.216;2023-03-23T08:44:44;464.70;;;178.77;;
8407;SDS011;4241;48.452;9.216;2023-03-23T08:47:13;464.13;;;177.83;;
8407;SDS011;4241;48.452;9.216;2023-03-23T08:49:40;462.00;;;175.10;;
8407;SDS011;4241;48.452;9.216;2023-03-23T08:52:07;462.10;;;174.63;;
8407;SDS011;4241;48.452;9.216;2023-03-23T08:54:34;461.50;;;174.57;;
8407;SDS011;4241;48.452;9.216;2023-03-23T08:57:03;462.10;;;172.73;;
8407;SDS011;4241;48.452;9.216;2023-03-23T08:59:29;462.40;;;175.40;;
8407;SDS011;4241;48.452;9.216;2023-03-23T09:01:56;462.27;;;175.83;;
8407;SDS011;4241;48.452;9.216;2023-03-23T09:04:24;477.43;;;190.27;;
8407;SDS011;4241;48.452;9.216;2023-03-23T09:06:53;462.77;;;174.33;;
8407;SDS011;4241;48.452;9.216;2023-03-23T09:09:22;464.97;;;178.80;;
8407;SDS011;4241;48.452;9.216;2023-03-23T09:11:48;465.07;;;178.73;;
8407;SDS011;4241;48.452;9.216;2023-03-23T09:14:15;463.93;;;176.07;;
8407;SDS011;4241;48.452;9.216;2023-03-23T09:16:42;463.83;;;176.43;;
8407;SDS011;4241;48.452;9.216;2023-03-23T09:19:10;462.53;;;174.97;;
8407;SDS011;4241;48.452;9.216;2023-03-23T09:21:38;462.70;;;176.30;;
8407;SDS011;4241;48.452;9.216;2023-03-23T09:24:05;462.23;;;174.87;;
8407;SDS011;4241;48.452;9.216;2023-03-23T09:26:32;464.40;;;178.00;;
8407;SDS011;4241;48.452;9.216;2023-03-23T09:28:59;464.53;;;180.23;;
8407;SDS011;4241;48.452;9.216;2023-03-23T09:31:26;466.83;;;183.00;;
8407;SDS011;4241;48.452;9.216;2023-03-23T09:33:53;466.33;;;184.37;;
8407;SDS011;4241;48.452;9.216;2023-03-23T09:36:21;464.53;;;180.10;;
8407;SDS011;4241;48.452;9.216;2023-03-23T09:38:52;464.90;;;181.27;;
8407;SDS011;4241;48.452;9.216;2023-03-23T09:41:24;465.27;;;181.97;;
8407;SDS011;4241;48.452;9.216;2023-03-23T09:44:10;464.23;;;180.07;;
8407;SDS011;4241;48.452;9.216;2023-03-23T09:46:49;465.10;;;180.30;;
8407;SDS011;4241;48.452;9.216;2023-03-23T09:49:23;463.30;;;178.97;;
8407;SDS011;4241;48.452;9.216;2023-03-23T09:51:54;463.73;;;178.00;;
8407;SDS011;4241;48.452;9.216;2023-03-23T09:54:26;465.40;;;180.87;;
8407;SDS011;4241;48.452;9.216;2023-03-23T09:56:55;463.83;;;178.67;;
8407;SDS011;4241;48.452;9.216;2023-03-23T09:59:27;463.83;;;179.13;;
8407;SDS011;4241;48.452;9.216;2023-03-23T10:01:58;464.87;;;178.73;;
8407;SDS011;4241;48.452;9.216;2023-03-23T10:04:36;468.07;;;184.47;;
8407;SDS011;4241;48.452;9.216;2023-03-23T10:07:09;465.40;;;180.90;;
8407;SDS011;4241;48.452;9.216;2023-03-23T10:09:40;466.17;;;180.00;;
8407;SDS011;4241;48.452;9.216;2023-03-23T10:12:10;465.20;;;180.93;;
8407;SDS011;4241;48.452;9.216;2023-03-23T10:15:00;466.60;;;184.97;;
8407;SDS011;4241;48.452;9.216;2023-03-23T10:17:33;466.57;;;184.70;;
8407;SDS011;4241;48.452;9.216;2023-03-23T10:22:59;469.30;;;188.70;;
8407;SDS011;4241;48.452;9.216;2023-03-23T10:25:36;474.90;;;196.20;;
8407;SDS011;4241;48.452;9.216;2023-03-23T10:28:09;469.40;;;190.17;;
8407;SDS011;4241;48.452;9.216;2023-03-23T10:30:39;466.40;;;187.93;;
8407;SDS011;4241;48.452;9.216;2023-03-23T10:33:11;471.50;;;194.53;;
8407;SDS011;4241;48.452;9.216;2023-03-23T10:35:43;470.83;;;192.73;;
8407;SDS011;4241;48.452;9.216;2023-03-23T10:38:14;469.00;;;189.13;;
8407;SDS011;4241;48.452;9.216;2023-03-23T10:40:47;470.27;;;187.73;;
8407;SDS011;4241;48.452;9.216;2023-03-23T10:43:17;466.53;;;186.37;;
8407;SDS011;4241;48.452;9.216;2023-03-23T10:45:45;465.77;;;181.37;;
8407;SDS011;4241;48.452;9.216;2023-03-23T10:48:28;466.23;;;184.33;;
8407;SDS011;4241;48.452;9.216;2023-03-23T10:51:00;465.30;;;180.37;;
8407;SDS011;4241;48.452;9.216;2023-03-23T10:53:31;466.97;;;181.73;;
8407;SDS011;4241;48.452;9.216;2023-03-23T10:56:02;466.00;;;183.17;;
8407;SDS011;4241;48.452;9.216;2023-03-23T10:58:31;465.37;;;181.67;;
8407;SDS011;4241;48.452;9.216;2023-03-23T11:01:00;464.90;;;180.37;;
8407;SDS011;4241;48.452;9.216;2023-03-23T11:03:35;464.53;;;180.27;;
8407;SDS011;4241;48.452;9.216;2023-03-23T11:06:06;466.33;;;181.60;;
8407;SDS011;4241;48.452;9.216;2023-03-23T11:08:36;464.57;;;180.67;;
8407;SDS011;4241;48.452;9.216;2023-03-23T11:11:10;465.50;;;183.57;;
8407;SDS011;4241;48.452;9.216;2023-03-23T11:13:42;465.63;;;183.00;;
8407;SDS011;4241;48.452;9.216;2023-03-23T11:16:10;466.23;;;183.67;;
8407;SDS011;4241;48.452;9.216;2023-03-23T11:18:49;467.67;;;186.10;;
8407;SDS011;4241;48.452;9.216;2023-03-23T11:21:17;465.93;;;183.60;;
8407;SDS011;4241;48.452;9.216;2023-03-23T11:23:47;466.23;;;184.37;;
8407;SDS011;4241;48.452;9.216;2023-03-23T11:26:19;466.47;;;185.37;;
8407;SDS011;4241;48.452;9.216;2023-03-23T11:28:51;467.87;;;187.47;;
8407;SDS011;4241;48.452;9.216;2023-03-23T11:31:21;467.00;;;185.27;;
8407;SDS011;4241;48.452;9.216;2023-03-23T11:33:52;466.23;;;184.50;;
8407;SDS011;4241;48.452;9.216;2023-03-23T11:36:28;466.03;;;183.43;;
8407;SDS011;4241;48.452;9.216;2023-03-23T11:39:00;467.87;;;186.33;;
8407;SDS011;4241;48.452;9.216;2023-03-23T11:41:33;468.27;;;188.63;;
8407;SDS011;4241;48.452;9.216;2023-03-23T11:44:08;467.20;;;190.03;;
8407;SDS011;4241;48.452;9.216;2023-03-23T11:46:38;468.77;;;189.97;;
8407;SDS011;4241;48.452;9.216;2023-03-23T11:49:12;470.10;;;192.73;;
8407;SDS011;4241;48.452;9.216;2023-03-23T11:51:47;473.03;;;197.47;;
8407;SDS011;4241;48.452;9.216;2023-03-23T11:54:17;473.57;;;199.03;;
8407;SDS011;4241;48.452;9.216;2023-03-23T11:56:51;473.33;;;200.87;;
8407;SDS011;4241;48.452;9.216;2023-03-23T11:59:26;475.33;;;204.17;;
8407;SDS011;4241;48.452;9.216;2023-03-23T12:01:56;475.23;;;203.83;;
8407;SDS011;4241;48.452;9.216;2023-03-23T12:04:40;474.50;;;201.70;;
8407;SDS011;4241;48.452;9.216;2023-03-23T12:07:25;474.73;;;202.77;;
8407;SDS011;4241;48.452;9.216;2023-03-23T12:10:19;475.50;;;201.00;;
8407;SDS011;4241;48.452;9.216;2023-03-23T12:12:57;474.07;;;201.70;;
8407;SDS011;4241;48.452;9.216;2023-03-23T12:15:37;476.10;;;206.23;;
8407;SDS011;4241;48.452;9.216;2023-03-23T12:18:12;474.27;;;200.23;;
8407;SDS011;4241;48.452;9.216;2023-03-23T12:20:51;474.23;;;202.53;;
8407;SDS011;4241;48.452;9.216;2023-03-23T12:23:25;474.20;;;202.83;;
8407;SDS011;4241;48.452;9.216;2023-03-23T12:26:13;473.83;;;202.87;;
8407;SDS011;4241;48.452;9.216;2023-03-23T12:31:50;474.47;;;203.17;;
8407;SDS011;4241;48.452;9.216;2023-03-23T12:34:28;474.63;;;204.50;;
8407;SDS011;4241;48.452;9.216;2023-03-23T12:37:16;474.63;;;202.63;;
8407;SDS011;4241;48.452;9.216;2023-03-23T12:39:58;472.90;;;199.73;;
8407;SDS011;4241;48.452;9.216;2023-03-23T12:42:43;473.97;;;199.73;;
8407;SDS011;4241;48.452;9.216;2023-03-23T12:45:21;472.70;;;197.73;;
8407;SDS011;4241;48.452;9.216;2023-03-23T12:47:55;473.63;;;197.50;;
8407;SDS011;4241;48.452;9.216;2023-03-23T12:50:28;473.07;;;197.43;;
8407;SDS011;4241;48.452;9.216;2023-03-23T12:52:58;471.83;;;194.13;;
8407;SDS011;4241;48.452;9.216;2023-03-23T12:55:32;477.83;;;202.60;;
8407;SDS011;4241;48.452;9.216;2023-03-23T12:58:03;473.10;;;198.57;;
8407;SDS011;4241;48.452;9.216;2023-03-23T13:00:46;471.90;;;195.53;;
8407;SDS011;4241;48.452;9.216;2023-03-23T13:03:20;470.27;;;192.27;;
8407;SDS011;4241;48.452;9.216;2023-03-23T13:05:57;472.90;;;194.87;;
8407;SDS011;4241;48.452;9.216;2023-03-23T13:08:32;472.47;;;196.23;;
8407;SDS011;4241;48.452;9.216;2023-03-23T13:11:03;472.03;;;196.73;;
8407;SDS011;4241;48.452;9.216;2023-03-23T13:13:41;472.00;;;197.20;;
8407;SDS011;4241;48.452;9.216;2023-03-23T13:16:16;472.90;;;198.70;;
8407;SDS011;4241;48.452;9.216;2023-03-23T13:18:53;472.70;;;197.33;;
8407;SDS011;4241;48.452;9.216;2023-03-23T13:21:29;469.87;;;191.90;;
8407;SDS011;4241;48.452;9.216;2023-03-23T13:23:58;471.60;;;193.93;;
8407;SDS011;4241;48.452;9.216;2023-03-23T13:26:28;471.47;;;195.53;;
8407;SDS011;4241;48.452;9.216;2023-03-23T13:28:57;472.20;;;197.97;;
8407;SDS011;4241;48.452;9.216;2023-03-23T13:31:29;471.67;;;195.27;;
8407;SDS011;4241;48.452;9.216;2023-03-23T13:34:00;471.57;;;194.90;;
8407;SDS011;4241;48.452;9.216;2023-03-23T13:36:31;469.57;;;192.00;;
8407;SDS011;4241;48.452;9.216;2023-03-23T13:39:02;470.40;;;192.93;;
8407;SDS011;4241;48.452;9.216;2023-03-23T13:41:34;472.00;;;195.50;;
8407;SDS011;4241;48.452;9.216;2023-03-23T13:44:17;474.67;;;196.53;;
8407;SDS011;4241;48.452;9.216;2023-03-23T13:47:06;473.10;;;197.60;;
8407;SDS011;4241;48.452;9.216;2023-03-23T13:49:44;478.37;;;199.93;;
8407;SDS011;4241;48.452;9.216;2023-03-23T13:52:17;471.13;;;194.37;;
8407;SDS011;4241;48.452;9.216;2023-03-23T13:54:49;472.77;;;199.47;;
8407;SDS011;4241;48.452;9.216;2023-03-23T13:57:21;473.60;;;197.77;;
8407;SDS011;4241;48.452;9.216;2023-03-23T13:59:59;472.67;;;197.03;;
8407;SDS011;4241;48.452;9.216;2023-03-23T14:02:39;473.33;;;195.67;;
8407;SDS011;4241;48.452;9.216;2023-03-23T14:05:08;473.50;;;198.43;;
8407;SDS011;4241;48.452;9.216;2023-03-23T14:07:53;472.37;;;196.93;;
8407;SDS011;4241;48.452;9.216;2023-03-23T14:10:21;473.87;;;194.87;;
8407;SDS011;4241;48.452;9.216;2023-03-23T14:12:49;470.40;;;194.23;;
8407;SDS011;4241;48.452;9.216;2023-03-23T14:15:19;472.07;;;195.80;;
8407;SDS011;4241;48.452;9.216;2023-03-23T14:17:47;470.40;;;192.30;;
8407;SDS011;4241;48.452;9.216;2023-03-23T14:20:24;471.67;;;193.90;;
8407;SDS011;4241;48.452;9.216;2023-03-23T14:22:53;469.27;;;191.27;;
8407;SDS011;4241;48.452;9.216;2023-03-23T14:25:21;472.40;;;192.67;;
8407;SDS011;4241;48.452;9.216;2023-03-23T14:27:52;470.23;;;191.17;;
8407;SDS011;4241;48.452;9.216;2023-03-23T14:30:21;469.90;;;188.13;;
8407;SDS011;4241;48.452;9.216;2023-03-23T14:32:51;470.93;;;193.00;;
8407;SDS011;4241;48.452;9.216;2023-03-23T14:35:28;470.70;;;191.47;;
8407;SDS011;4241;48.452;9.216;2023-03-23T14:37:57;469.20;;;188.80;;
8407;SDS011;4241;48.452;9.216;2023-03-23T14:40:25;469.20;;;188.50;;
8407;SDS011;4241;48.452;9.216;2023-03-23T14:42:54;470.53;;;191.50;;
8407;SDS011;4241;48.452;9.216;2023-03-23T14:45:22;474.67;;;197.20;;
8407;SDS011;4241;48.452;9.216;2023-03-23T14:47:50;469.57;;;191.50;;
8407;SDS011;4241;48.452;9.216;2023-03-23T14:50:23;471.13;;;193.60;;